createdAt,value
2023-10-18T00:03:13.528Z,1.51
2023-10-18T00:08:16.393Z,1.51
2023-10-18T00:13:18.021Z,1.45
2023-10-18T00:18:19.694Z,1.43
2023-10-18T00:23:24.636Z,1.34
2023-10-18T00:28:26.188Z,1.39
2023-10-18T00:33:27.675Z,1.39
2023-10-18T00:38:30.587Z,1.38
2023-10-18T00:43:32.344Z,1.47
2023-10-18T00:48:33.946Z,1.45
2023-10-18T00:53:39.191Z,1.43
2023-10-18T00:58:40.708Z,1.39
2023-10-18T01:03:45.315Z,1.47
2023-10-18T01:08:49.562Z,1.42
2023-10-18T01:13:51.065Z,1.43
2023-10-18T01:18:54.166Z,1.46
2023-10-18T01:23:58.364Z,1.44
2023-10-18T01:29:03.560Z,1.47
2023-10-18T01:34:05.219Z,1.65
2023-10-18T01:39:07.180Z,1.65
2023-10-18T01:44:10.009Z,1.68
2023-10-18T01:49:11.541Z,1.66
2023-10-18T01:54:13.128Z,1.72
2023-10-18T01:59:16.079Z,1.76
2023-10-18T02:04:17.581Z,1.69
2023-10-18T02:09:19.124Z,1.70
2023-10-18T02:14:21.970Z,1.67
2023-10-18T02:19:23.558Z,1.66
2023-10-18T02:24:25.250Z,1.67
2023-10-18T02:29:28.670Z,1.57
2023-10-18T02:34:30.568Z,1.55
2023-10-18T02:39:32.128Z,1.53
2023-10-18T02:44:35.085Z,1.54
2023-10-18T02:49:36.729Z,1.48
2023-10-18T02:54:38.334Z,1.49
2023-10-18T02:59:41.523Z,1.44
2023-10-18T03:04:43.216Z,1.40
2023-10-18T03:09:44.741Z,1.36
2023-10-18T03:14:47.588Z,1.39
2023-10-18T03:19:49.471Z,1.39
2023-10-18T03:24:52.092Z,1.43
2023-10-18T03:29:56.888Z,1.39
2023-10-18T03:34:58.482Z,1.37
2023-10-18T03:40:00.114Z,1.36
2023-10-18T03:45:04.480Z,1.40
2023-10-18T03:50:07.031Z,1.39
2023-10-18T03:55:09.117Z,1.38
2023-10-18T04:00:13.605Z,1.38
2023-10-18T04:05:15.106Z,1.35
2023-10-18T04:10:16.705Z,1.35
2023-10-18T04:15:19.609Z,1.33
2023-10-18T04:20:21.210Z,1.27
2023-10-18T04:25:22.893Z,1.25
2023-10-18T04:30:26.068Z,1.28
2023-10-18T04:35:27.823Z,1.28
2023-10-18T04:40:29.356Z,1.30
2023-10-18T04:45:32.210Z,1.30
2023-10-18T04:50:33.859Z,1.29
2023-10-18T04:55:39.599Z,1.28
2023-10-18T05:00:42.621Z,1.30
2023-10-18T05:05:44.203Z,1.30
2023-10-18T05:10:45.784Z,1.35
2023-10-18T05:15:48.798Z,1.52
2023-10-18T05:20:52.556Z,1.51
2023-10-18T05:25:55.410Z,1.48
2023-10-18T05:31:03.157Z,1.43
2023-10-18T05:36:06.162Z,1.36
2023-10-18T05:41:07.679Z,1.37
2023-10-18T05:46:10.713Z,1.30
2023-10-18T05:51:15.503Z,1.28
2023-10-18T05:56:19.242Z,1.34
2023-10-18T06:01:22.242Z,1.25
2023-10-18T06:06:23.906Z,1.28
2023-10-18T06:11:25.521Z,1.22
2023-10-18T06:16:35.766Z,1.29
2023-10-18T06:21:37.442Z,1.36
2023-10-18T06:26:38.951Z,1.27
2023-10-18T06:31:41.978Z,1.35
2023-10-18T06:36:44.510Z,1.33
2023-10-18T06:41:46.620Z,1.38
2023-10-18T06:46:49.609Z,1.42
2023-10-18T06:51:51.317Z,1.57
2023-10-18T06:56:52.956Z,1.42
2023-10-18T07:01:56.074Z,1.44
2023-10-18T07:06:57.762Z,1.52
2023-10-18T07:12:00.275Z,1.58
2023-10-18T07:17:03.186Z,1.66
2023-10-18T07:22:05.873Z,1.76
2023-10-18T07:27:07.560Z,1.78
2023-10-18T07:32:10.496Z,1.74
2023-10-18T07:37:12.164Z,1.66
2023-10-18T07:42:13.704Z,1.89
2023-10-18T07:47:16.615Z,1.96
2023-10-18T07:52:18.184Z,1.96
2023-10-18T07:57:19.701Z,2.18
2023-10-18T08:02:22.740Z,2.67
2023-10-18T08:07:24.462Z,2.49
2023-10-18T08:12:26.565Z,2.71
2023-10-18T08:17:29.537Z,2.75
2023-10-18T08:22:31.233Z,2.80
2023-10-18T08:27:32.854Z,2.93
2023-10-18T08:32:35.822Z,2.69
2023-10-18T08:37:37.722Z,2.95
2023-10-18T08:42:43.972Z,3.01
2023-10-18T08:47:47.826Z,2.61
2023-10-18T08:52:49.703Z,2.94
2023-10-18T08:57:53.654Z,2.89
2023-10-18T09:02:56.776Z,2.87
2023-10-18T09:08:00.420Z,3.31
2023-10-18T09:13:05.373Z,3.59
2023-10-18T09:18:08.537Z,3.45
2023-10-18T09:23:10.158Z,3.03
2023-10-18T09:28:11.858Z,3.08
2023-10-18T09:33:15.023Z,3.15
2023-10-18T09:38:16.581Z,3.29
2023-10-18T09:43:19.215Z,3.56
2023-10-18T09:48:22.473Z,3.79
2023-10-18T09:53:24.275Z,3.50
2023-10-18T09:58:26.913Z,3.37
2023-10-18T10:03:31.010Z,3.33
2023-10-18T10:08:33.078Z,3.40
2023-10-18T10:13:34.834Z,3.48
2023-10-18T10:18:41.322Z,3.37
2023-10-18T10:23:43.050Z,3.65
2023-10-18T10:28:46.052Z,4.05
2023-10-18T10:34:05.841Z,4.53
2023-10-18T10:39:07.720Z,4.50
2023-10-18T10:44:09.670Z,4.84
2023-10-18T10:49:49.517Z,4.69
2023-10-18T10:54:51.131Z,5.13
2023-10-18T10:59:53.062Z,5.46
2023-10-18T11:04:57.149Z,5.38
2023-10-18T11:09:58.779Z,5.56
2023-10-18T11:15:01.541Z,5.91
2023-10-18T11:20:06.832Z,6.11
2023-10-18T11:25:08.864Z,6.07
2023-10-18T11:30:11.025Z,6.06
2023-10-18T11:35:19.801Z,6.36
2023-10-18T11:40:21.811Z,6.23
2023-10-18T11:45:23.581Z,6.56
2023-10-18T11:50:39.184Z,6.71
2023-10-18T11:55:54.060Z,6.32
2023-10-18T12:00:56.643Z,6.56
2023-10-18T12:06:00.987Z,6.68
2023-10-18T12:11:02.496Z,6.89
2023-10-18T12:16:04.745Z,6.96
2023-10-18T12:21:07.698Z,6.95
2023-10-18T12:26:09.203Z,7.09
2023-10-18T12:31:10.817Z,6.81
2023-10-18T12:36:13.857Z,6.79
2023-10-18T12:41:15.624Z,6.77
2023-10-18T12:46:17.435Z,6.72
2023-10-18T12:51:20.376Z,6.78
2023-10-18T12:56:21.924Z,7.14
2023-10-18T13:01:23.535Z,6.81
2023-10-18T13:06:26.691Z,6.75
2023-10-18T13:11:28.371Z,6.85
2023-10-18T13:16:29.976Z,6.91
2023-10-18T13:21:32.913Z,6.97
2023-10-18T13:26:34.503Z,6.94
2023-10-18T13:31:36.177Z,6.98
2023-10-18T13:36:39.033Z,7.02
2023-10-18T13:41:41.026Z,7.11
2023-10-18T13:46:55.111Z,7.23
2023-10-18T13:52:04.681Z,7.10
2023-10-18T13:57:06.250Z,7.15
2023-10-18T14:02:07.997Z,7.12
2023-10-18T14:07:11.017Z,7.27
2023-10-18T14:12:12.664Z,7.29
2023-10-18T14:17:15.783Z,7.35
2023-10-18T14:22:19.013Z,7.27
2023-10-18T14:27:20.740Z,7.24
2023-10-18T14:32:22.380Z,7.26
2023-10-18T14:37:25.390Z,7.24
2023-10-18T14:42:26.947Z,6.64
2023-10-18T14:47:29.540Z,6.51
2023-10-18T14:52:32.704Z,6.44
2023-10-18T14:57:34.216Z,6.39
2023-10-18T15:02:35.901Z,6.20
2023-10-18T15:07:39.159Z,6.51
2023-10-18T15:12:40.812Z,6.55
2023-10-18T15:17:42.531Z,6.43
2023-10-18T15:22:45.573Z,6.43
2023-10-18T15:27:47.362Z,6.39
2023-10-18T15:32:49.063Z,6.26
2023-10-18T15:37:51.947Z,6.19
2023-10-18T15:42:54.216Z,6.09
2023-10-18T15:47:57.029Z,5.96
2023-10-18T15:53:00.089Z,6.12
2023-10-18T15:58:01.582Z,6.06
2023-10-18T16:03:03.554Z,6.07
2023-10-18T16:08:07.025Z,6.13
2023-10-18T16:13:08.652Z,6.12
2023-10-18T16:18:10.392Z,6.14
2023-10-18T16:23:13.338Z,6.32
2023-10-18T16:28:14.911Z,6.38
2023-10-18T16:33:16.713Z,6.47
2023-10-18T16:38:19.755Z,6.57
2023-10-18T16:43:21.430Z,6.70
2023-10-18T16:48:22.993Z,6.80
2023-10-18T16:53:25.990Z,6.84
2023-10-18T16:58:27.662Z,6.95
2023-10-18T17:03:30.744Z,6.98
2023-10-18T17:08:34.121Z,6.65
2023-10-18T17:13:35.920Z,6.47
2023-10-18T17:18:37.489Z,6.41
2023-10-18T17:23:40.466Z,6.18
2023-10-18T17:28:42.084Z,6.27
2023-10-18T17:33:43.664Z,6.23
2023-10-18T17:38:47.953Z,6.16
2023-10-18T17:43:49.590Z,6.25
2023-10-18T17:48:51.091Z,6.35
2023-10-18T17:53:54.044Z,6.54
2023-10-18T17:58:55.761Z,6.64
2023-10-18T18:03:57.523Z,6.55
2023-10-18T18:09:00.676Z,6.62
2023-10-18T18:14:02.307Z,6.63
2023-10-18T18:19:03.901Z,6.42
2023-10-18T18:24:07.295Z,6.29
2023-10-18T18:29:08.914Z,6.24
2023-10-18T18:34:10.561Z,6.26
2023-10-18T18:39:13.534Z,6.51
2023-10-18T18:44:15.215Z,6.67
2023-10-18T18:49:16.845Z,6.78
2023-10-18T18:54:21.815Z,6.92
2023-10-18T18:59:23.473Z,7.05
2023-10-18T19:04:25.082Z,7.12
2023-10-18T19:09:28.055Z,7.09
2023-10-18T19:14:29.641Z,7.09
2023-10-18T19:19:31.321Z,6.88
2023-10-18T19:24:35.567Z,6.83
2023-10-18T19:29:38.110Z,6.97
2023-10-18T19:34:39.819Z,6.91
2023-10-18T19:39:42.687Z,6.89
2023-10-18T19:44:44.335Z,6.85
2023-10-18T19:49:45.925Z,6.87
2023-10-18T19:54:49.032Z,6.65
2023-10-18T19:59:52.956Z,6.64
2023-10-18T20:04:55.347Z,6.69
2023-10-18T20:09:58.326Z,6.63
2023-10-18T20:14:59.911Z,6.74
2023-10-18T20:20:01.472Z,6.79
2023-10-18T20:25:04.903Z,6.85
2023-10-18T20:30:07.822Z,6.97
2023-10-18T20:35:10.150Z,7.00
2023-10-18T20:40:13.583Z,7.02
2023-10-18T20:45:15.227Z,7.12
2023-10-18T20:50:17.017Z,7.16
2023-10-18T20:55:20.321Z,7.16
2023-10-18T21:00:21.949Z,7.18
2023-10-18T21:05:23.525Z,7.20
2023-10-18T21:10:28.601Z,7.31
2023-10-18T21:15:31.239Z,7.40
2023-10-18T21:20:33.349Z,7.45
2023-10-18T21:25:36.396Z,7.43
2023-10-18T21:30:38.403Z,7.39
2023-10-18T21:35:39.960Z,7.43
2023-10-18T21:40:43.634Z,7.39
2023-10-18T21:45:45.207Z,7.35
2023-10-18T21:50:46.832Z,7.22
2023-10-18T21:55:49.745Z,7.07
2023-10-18T22:00:52.088Z,7.06
2023-10-18T22:05:54.367Z,7.14
2023-10-18T22:10:57.610Z,7.25
2023-10-18T22:15:59.674Z,7.19
2023-10-18T22:21:01.308Z,7.27
2023-10-18T22:31:11.090Z,7.52
2023-10-18T22:36:12.802Z,7.58
2023-10-18T22:41:15.940Z,7.67
2023-10-18T22:46:17.534Z,7.72
2023-10-18T22:51:19.105Z,7.74
2023-10-18T22:56:21.985Z,7.62
2023-10-18T23:01:23.810Z,7.67
2023-10-18T23:06:25.493Z,7.65
2023-10-18T23:11:28.428Z,7.68
2023-10-18T23:16:30.008Z,7.60
2023-10-18T23:21:31.747Z,7.63
2023-10-18T23:26:34.666Z,7.75
2023-10-18T23:31:36.205Z,7.71
2023-10-18T23:36:37.842Z,7.77
2023-10-18T23:41:40.855Z,7.86
2023-10-18T23:46:42.455Z,7.54
2023-10-18T23:51:44.030Z,7.51
2023-10-18T23:56:47.076Z,7.60
